createdAt,value
2022-12-04T00:00:36.000Z,52.65
2022-12-04T00:03:03.741Z,63.83
2022-12-04T00:05:31.409Z,57.95
2022-12-04T00:07:59.001Z,60.38
2022-12-04T00:10:26.589Z,52.00
2022-12-04T00:12:54.084Z,60.88
2022-12-04T00:15:26.312Z,63.47
2022-12-04T00:17:54.515Z,59.83
2022-12-04T00:20:23.137Z,62.42
2022-12-04T00:22:50.715Z,58.22
2022-12-04T00:25:18.378Z,60.08
2022-12-04T00:27:45.976Z,59.70
2022-12-04T00:30:13.954Z,55.63
2022-12-04T00:32:41.532Z,51.60
2022-12-04T00:35:09.871Z,57.75
2022-12-04T00:37:37.421Z,66.40
2022-12-04T00:40:05.464Z,61.35
2022-12-04T00:42:32.962Z,54.30
2022-12-04T00:45:00.541Z,58.08
2022-12-04T00:47:28.020Z,58.15
2022-12-04T00:49:55.852Z,73.93
2022-12-04T00:52:23.631Z,65.60
2022-12-04T00:54:51.132Z,63.00
2022-12-04T00:57:18.652Z,61.67
2022-12-04T00:59:46.186Z,61.20
2022-12-04T01:02:13.699Z,58.72
2022-12-04T01:04:41.145Z,66.82
2022-12-04T01:07:08.660Z,61.45
2022-12-04T01:09:36.133Z,62.45
2022-12-04T01:12:03.661Z,55.22
2022-12-04T01:14:31.268Z,59.50
2022-12-04T01:16:58.936Z,60.65
2022-12-04T01:19:26.544Z,57.78
2022-12-04T01:21:54.118Z,61.88
2022-12-04T01:24:21.782Z,67.18
2022-12-04T01:26:49.286Z,58.70
2022-12-04T01:29:16.800Z,59.90
2022-12-04T01:31:44.487Z,71.90
2022-12-04T01:34:12.124Z,55.67
2022-12-04T01:36:39.618Z,58.05
2022-12-04T01:39:07.248Z,63.97
2022-12-04T01:41:34.753Z,59.75
2022-12-04T01:44:14.465Z,61.05
2022-12-04T01:46:43.057Z,65.60
2022-12-04T01:49:15.585Z,58.92
2022-12-04T01:54:22.234Z,65.43
2022-12-04T01:56:59.329Z,64.25
2022-12-04T01:59:32.009Z,67.72
2022-12-04T02:02:12.107Z,60.75
2022-12-04T02:04:41.719Z,64.07
2022-12-04T02:07:10.099Z,63.85
2022-12-04T02:09:39.583Z,56.83
2022-12-04T02:12:24.483Z,65.28
2022-12-04T02:15:23.780Z,58.95
2022-12-04T02:18:04.356Z,70.97
2022-12-04T02:20:47.456Z,59.28
2022-12-04T02:23:34.000Z,63.42
2022-12-04T02:26:29.403Z,65.07
2022-12-04T02:29:18.080Z,69.18
2022-12-04T02:31:56.368Z,57.20
2022-12-04T02:34:30.950Z,61.47
2022-12-04T02:37:05.558Z,62.65
2022-12-04T02:39:42.269Z,63.33
2022-12-04T02:42:17.036Z,59.40
2022-12-04T02:44:54.340Z,62.25
2022-12-04T02:47:24.877Z,61.65
2022-12-04T02:50:00.306Z,60.63
2022-12-04T02:52:36.412Z,60.20
2022-12-04T02:55:09.323Z,64.25
2022-12-04T02:57:42.348Z,64.00
2022-12-04T03:00:10.874Z,66.38
2022-12-04T03:02:59.861Z,65.07
2022-12-04T03:05:35.714Z,56.90
2022-12-04T03:08:09.084Z,65.00
2022-12-04T03:10:42.178Z,73.72
2022-12-04T03:13:24.015Z,67.63
2022-12-04T03:16:02.911Z,65.57
2022-12-04T03:18:39.079Z,64.45
2022-12-04T03:21:11.844Z,62.50
2022-12-04T03:23:47.612Z,72.82
2022-12-04T03:26:25.329Z,61.72
2022-12-04T03:29:08.785Z,63.65
2022-12-04T03:31:48.572Z,56.95
2022-12-04T03:34:28.121Z,62.60
2022-12-04T03:37:04.597Z,63.80
2022-12-04T03:39:43.274Z,58.70
2022-12-04T03:42:28.442Z,68.65
2022-12-04T03:45:20.733Z,65.38
2022-12-04T03:47:54.557Z,66.25
2022-12-04T03:50:42.955Z,68.53
2022-12-04T03:53:31.612Z,66.28
2022-12-04T03:56:10.681Z,65.90
2022-12-04T03:58:43.156Z,57.00
2022-12-04T04:03:52.971Z,60.58
2022-12-04T04:06:37.797Z,67.70
2022-12-04T04:09:11.953Z,67.43
2022-12-04T04:11:46.699Z,60.45
2022-12-04T04:14:45.819Z,58.20
2022-12-04T04:17:38.697Z,69.55
2022-12-04T04:20:37.261Z,63.70
2022-12-04T04:23:25.136Z,62.80
2022-12-04T04:25:54.565Z,62.13
2022-12-04T04:28:32.711Z,68.45
2022-12-04T04:31:55.654Z,62.28
2022-12-04T04:34:23.242Z,63.75
2022-12-04T04:37:01.036Z,66.80
2022-12-04T04:39:32.942Z,64.50
2022-12-04T04:42:05.777Z,66.22
2022-12-04T04:44:46.420Z,59.90
2022-12-04T04:47:28.436Z,66.00
2022-12-04T04:49:58.328Z,70.78
2022-12-04T04:52:26.183Z,67.30
2022-12-04T04:54:53.895Z,57.10
2022-12-04T04:57:31.751Z,65.75
2022-12-04T04:59:59.409Z,66.60
2022-12-04T05:02:27.853Z,68.03
2022-12-04T05:04:56.290Z,63.88
2022-12-04T05:07:23.838Z,64.10
2022-12-04T05:09:51.409Z,64.65
2022-12-04T05:12:18.996Z,66.40
2022-12-04T05:14:48.821Z,63.40
2022-12-04T05:17:16.831Z,67.03
2022-12-04T05:19:57.239Z,59.67
2022-12-04T05:22:36.607Z,63.15
2022-12-04T05:25:05.025Z,61.38
2022-12-04T05:27:33.316Z,61.05
2022-12-04T05:30:00.946Z,61.65
2022-12-04T05:32:30.060Z,62.70
2022-12-04T05:34:58.838Z,66.75
2022-12-04T05:37:26.910Z,63.17
2022-12-04T05:39:54.824Z,57.92
2022-12-04T05:42:22.939Z,59.22
2022-12-04T05:44:50.721Z,66.25
2022-12-04T05:47:18.372Z,66.88
2022-12-04T05:49:45.909Z,69.47
2022-12-04T05:52:13.693Z,60.55
2022-12-04T05:54:41.635Z,62.10
2022-12-04T05:57:09.357Z,61.17
2022-12-04T05:59:37.051Z,68.72
2022-12-04T06:02:04.746Z,68.22
2022-12-04T06:04:32.268Z,64.50
2022-12-04T06:07:00.290Z,67.38
2022-12-04T06:09:28.792Z,63.03
2022-12-04T06:11:59.735Z,66.13
2022-12-04T06:14:27.609Z,63.00
2022-12-04T06:16:55.490Z,62.92
2022-12-04T06:19:24.190Z,61.20
2022-12-04T06:21:54.430Z,65.03
2022-12-04T06:24:24.832Z,64.10
2022-12-04T06:27:27.368Z,64.70
2022-12-04T06:29:43.940Z,59.97
2022-12-04T06:32:14.096Z,64.18
2022-12-04T06:34:45.597Z,67.05
2022-12-04T06:37:13.172Z,60.15
2022-12-04T06:39:40.732Z,63.28
2022-12-04T06:42:08.345Z,70.13
2022-12-04T06:44:35.916Z,66.25
2022-12-04T06:47:04.050Z,62.63
2022-12-04T06:49:31.573Z,60.83
2022-12-04T06:51:59.153Z,63.45
2022-12-04T06:54:26.719Z,59.20
2022-12-04T06:56:54.243Z,66.30
2022-12-04T06:59:21.801Z,61.42
2022-12-04T07:01:49.270Z,62.50
2022-12-04T07:04:16.783Z,61.65
2022-12-04T07:06:44.349Z,66.35
2022-12-04T07:09:16.418Z,57.90
2022-12-04T07:11:45.468Z,62.15
2022-12-04T07:14:14.537Z,58.58
2022-12-04T07:16:43.338Z,65.70
2022-12-04T07:19:12.823Z,58.67
2022-12-04T07:21:40.813Z,65.43
2022-12-04T07:24:08.431Z,53.88
2022-12-04T07:26:36.028Z,61.22
2022-12-04T07:29:03.499Z,65.40
2022-12-04T07:31:31.403Z,63.28
2022-12-04T07:33:59.736Z,63.15
2022-12-04T07:36:28.102Z,59.47
2022-12-04T07:38:57.512Z,58.28
2022-12-04T07:41:25.877Z,65.78
2022-12-04T07:43:54.867Z,60.15
2022-12-04T07:46:26.423Z,64.35
2022-12-04T07:48:57.009Z,52.60
2022-12-04T07:51:27.685Z,62.17
2022-12-04T07:54:02.647Z,59.20
2022-12-04T07:56:31.436Z,59.58
2022-12-04T07:59:00.332Z,60.22
2022-12-04T08:01:29.160Z,56.92
2022-12-04T08:03:59.314Z,64.32
2022-12-04T08:06:29.437Z,56.22
2022-12-04T08:08:58.533Z,53.55
2022-12-04T08:11:28.454Z,53.78
2022-12-04T08:14:01.944Z,59.08
2022-12-04T08:16:31.933Z,63.58
2022-12-04T08:19:01.189Z,60.60
2022-12-04T08:21:31.486Z,61.60
2022-12-04T08:24:01.213Z,58.63
2022-12-04T08:26:31.621Z,58.67
2022-12-04T08:29:01.451Z,63.13
2022-12-04T08:31:31.377Z,65.55
2022-12-04T08:34:00.448Z,64.63
2022-12-04T08:36:29.338Z,61.72
2022-12-04T08:38:57.718Z,56.58
2022-12-04T08:41:27.156Z,59.55
2022-12-04T08:43:58.134Z,59.08
2022-12-04T08:46:28.103Z,53.70
2022-12-04T08:48:56.665Z,60.95
2022-12-04T08:51:27.832Z,58.10
2022-12-04T08:53:57.215Z,56.97
2022-12-04T08:56:26.530Z,62.50
2022-12-04T08:58:54.925Z,67.70
2022-12-04T09:01:22.942Z,55.05
2022-12-04T09:03:51.047Z,58.08
2022-12-04T09:06:19.641Z,56.53
2022-12-04T09:08:47.692Z,68.75
2022-12-04T09:11:19.046Z,66.88
2022-12-04T09:13:48.549Z,60.75
2022-12-04T09:16:20.489Z,63.25
2022-12-04T09:18:48.896Z,59.13
2022-12-04T09:21:19.328Z,52.83
2022-12-04T09:23:47.803Z,61.30
2022-12-04T09:26:36.251Z,56.20
2022-12-04T09:29:06.075Z,60.45
2022-12-04T09:31:35.036Z,62.28
2022-12-04T09:34:03.458Z,55.53
2022-12-04T09:36:31.825Z,53.20
2022-12-04T09:39:00.096Z,58.72
2022-12-04T09:41:34.220Z,60.95
2022-12-04T09:44:11.612Z,52.17
2022-12-04T09:46:44.486Z,50.13
2022-12-04T09:49:27.714Z,54.45
2022-12-04T09:51:59.678Z,53.90
2022-12-04T09:54:34.001Z,54.25
2022-12-04T09:57:12.037Z,53.63
2022-12-04T09:59:40.082Z,53.80
2022-12-04T10:02:10.836Z,50.70
2022-12-04T10:04:39.293Z,52.60
2022-12-04T10:07:48.085Z,59.63
2022-12-04T10:10:40.495Z,53.80
2022-12-04T10:13:14.204Z,58.22
2022-12-04T10:16:02.058Z,52.85
2022-12-04T10:18:48.917Z,57.40
2022-12-04T10:21:53.654Z,48.95
2022-12-04T10:24:42.437Z,44.90
2022-12-04T10:27:22.464Z,48.00
2022-12-04T10:29:55.227Z,49.17
2022-12-04T10:32:36.132Z,51.80
2022-12-04T10:35:17.414Z,53.20
2022-12-04T10:37:47.211Z,54.65
2022-12-04T10:40:34.367Z,57.00
2022-12-04T10:43:23.704Z,49.40
2022-12-04T10:45:51.775Z,43.78
2022-12-04T10:48:31.623Z,47.75
2022-12-04T10:51:00.312Z,44.30
2022-12-04T10:53:34.743Z,49.45
2022-12-04T10:56:18.377Z,43.88
2022-12-04T10:59:00.253Z,44.33
2022-12-04T11:01:32.036Z,45.30
2022-12-04T11:04:11.245Z,32.85
2022-12-04T11:06:43.197Z,47.42
2022-12-04T11:09:23.686Z,45.75
2022-12-04T11:11:52.566Z,47.63
2022-12-04T11:14:23.623Z,43.78
2022-12-04T11:17:03.017Z,49.45
2022-12-04T11:19:33.802Z,40.97
2022-12-04T11:22:16.556Z,38.05
2022-12-04T11:24:52.247Z,34.55
2022-12-04T11:27:32.215Z,37.67
2022-12-04T11:30:05.413Z,32.03
2022-12-04T11:32:35.661Z,36.15
2022-12-04T11:35:15.408Z,34.28
2022-12-04T11:37:45.423Z,29.80
2022-12-04T11:40:20.941Z,37.58
2022-12-04T11:43:20.149Z,36.33
2022-12-04T11:46:03.881Z,37.85
2022-12-04T11:48:42.192Z,28.90
2022-12-04T11:51:15.997Z,34.03
2022-12-04T11:54:10.699Z,33.40
2022-12-04T11:56:43.172Z,36.75
2022-12-04T12:02:16.366Z,32.60
2022-12-04T12:05:19.890Z,37.22
2022-12-04T12:08:03.260Z,34.78
2022-12-04T12:10:44.936Z,27.80
2022-12-04T12:13:46.999Z,26.53
2022-12-04T12:16:29.934Z,30.77
2022-12-04T12:19:13.053Z,27.35
2022-12-04T12:22:05.220Z,28.17
2022-12-04T12:24:40.916Z,28.30
2022-12-04T12:27:27.747Z,27.05
2022-12-04T12:29:58.263Z,29.85
2022-12-04T12:33:04.627Z,26.20
2022-12-04T12:35:38.753Z,26.95
2022-12-04T12:38:42.156Z,29.17
2022-12-04T12:41:28.753Z,30.08
2022-12-04T12:44:04.928Z,21.10
2022-12-04T12:46:52.807Z,25.08
2022-12-04T12:49:32.835Z,24.35
2022-12-04T12:52:26.994Z,24.60
2022-12-04T12:55:02.352Z,27.95
2022-12-04T12:57:55.401Z,22.27
2022-12-04T13:00:25.627Z,28.00
2022-12-04T13:03:01.688Z,23.75
2022-12-04T13:05:39.266Z,29.40
2022-12-04T13:08:31.718Z,23.17
2022-12-04T13:11:15.965Z,26.42
2022-12-04T13:14:05.341Z,22.70
2022-12-04T13:16:41.601Z,23.83
2022-12-04T13:19:27.083Z,23.13
2022-12-04T13:22:02.116Z,22.35
2022-12-04T13:24:51.713Z,20.27
2022-12-04T13:27:51.088Z,21.08
2022-12-04T13:30:19.114Z,23.85
2022-12-04T13:32:50.239Z,22.00
2022-12-04T13:35:23.607Z,27.83
2022-12-04T13:38:07.046Z,25.88
2022-12-04T13:40:47.911Z,21.45
2022-12-04T13:43:21.891Z,21.15
2022-12-04T13:45:52.045Z,18.45
2022-12-04T13:48:52.396Z,26.17
2022-12-04T13:51:25.058Z,18.40
2022-12-04T13:54:14.423Z,23.15
2022-12-04T13:56:57.441Z,23.00
2022-12-04T13:59:37.413Z,25.40
2022-12-04T14:02:22.191Z,13.90
2022-12-04T14:05:05.506Z,24.70
2022-12-04T14:07:38.522Z,25.20
2022-12-04T14:10:15.979Z,24.23
2022-12-04T14:12:52.140Z,21.65
2022-12-04T14:15:25.743Z,24.38
2022-12-04T14:18:14.708Z,18.38
2022-12-04T14:20:44.720Z,29.58
2022-12-04T14:23:22.725Z,25.05
2022-12-04T14:25:51.426Z,23.50
2022-12-04T14:28:41.973Z,22.65
2022-12-04T14:31:10.666Z,27.90
2022-12-04T14:33:45.843Z,27.05
2022-12-04T14:36:42.388Z,24.65
2022-12-04T14:39:22.433Z,24.02
2022-12-04T14:41:51.118Z,25.17
2022-12-04T14:44:33.117Z,25.50
2022-12-04T14:47:16.990Z,26.40
2022-12-04T14:50:23.849Z,27.10
2022-12-04T14:53:16.899Z,25.00
2022-12-04T14:55:56.647Z,29.20
2022-12-04T14:58:31.790Z,31.23
2022-12-04T15:01:29.060Z,30.45
2022-12-04T15:04:00.496Z,29.67
2022-12-04T15:06:33.566Z,32.67
2022-12-04T15:09:17.532Z,33.03
2022-12-04T15:12:24.000Z,28.30
2022-12-04T15:14:52.292Z,32.85
2022-12-04T15:17:20.459Z,29.88
2022-12-04T15:19:48.541Z,34.03
2022-12-04T15:22:22.646Z,30.73
2022-12-04T15:24:52.356Z,31.95
2022-12-04T15:27:32.073Z,35.88
2022-12-04T15:30:02.735Z,37.10
2022-12-04T15:32:32.443Z,36.97
2022-12-04T15:35:05.026Z,40.58
2022-12-04T15:37:33.911Z,39.83
2022-12-04T15:40:06.728Z,38.55
2022-12-04T15:42:50.449Z,47.85
2022-12-04T15:45:19.767Z,38.17
2022-12-04T15:47:47.600Z,44.85
2022-12-04T15:50:18.333Z,42.97
2022-12-04T15:52:56.549Z,44.13
2022-12-04T15:55:26.153Z,41.30
2022-12-04T15:58:06.120Z,49.97
2022-12-04T16:00:40.013Z,41.38
2022-12-04T16:03:25.333Z,46.22
2022-12-04T16:06:16.094Z,46.15
2022-12-04T16:08:46.422Z,35.63
2022-12-04T16:11:20.462Z,27.08
2022-12-04T16:13:51.174Z,50.67
2022-12-04T16:16:22.588Z,40.65
2022-12-04T16:18:50.697Z,44.88
2022-12-04T16:21:21.938Z,37.85
2022-12-04T16:23:50.232Z,43.50
2022-12-04T16:26:20.751Z,46.13
2022-12-04T16:28:48.629Z,48.78
2022-12-04T16:31:20.157Z,28.63
2022-12-04T16:33:47.961Z,45.13
2022-12-04T16:36:16.007Z,47.92
2022-12-04T16:38:43.977Z,45.65
2022-12-04T16:41:21.980Z,41.40
2022-12-04T16:43:58.964Z,46.20
2022-12-04T16:46:30.957Z,45.33
2022-12-04T16:49:04.285Z,42.40
2022-12-04T16:51:56.462Z,45.17
2022-12-04T16:54:24.542Z,44.90
2022-12-04T16:56:52.711Z,42.13
2022-12-04T16:59:20.599Z,40.53
2022-12-04T17:01:50.473Z,42.70
2022-12-04T17:04:19.442Z,45.83
2022-12-04T17:06:48.071Z,42.85
2022-12-04T17:09:17.271Z,41.75
2022-12-04T17:11:45.953Z,48.10
2022-12-04T17:14:15.055Z,43.25
2022-12-04T17:16:46.881Z,45.38
2022-12-04T17:19:15.528Z,43.13
2022-12-04T17:21:45.111Z,40.00
2022-12-04T17:24:13.442Z,48.30
2022-12-04T17:26:41.865Z,45.65
2022-12-04T17:29:09.842Z,47.97
2022-12-04T17:31:37.884Z,47.50
2022-12-04T17:34:05.999Z,43.35
2022-12-04T17:36:33.847Z,42.88
2022-12-04T17:39:02.736Z,45.13
2022-12-04T17:41:31.024Z,37.65
2022-12-04T17:44:00.963Z,43.72
2022-12-04T17:46:29.216Z,43.10
2022-12-04T17:49:01.586Z,46.53
2022-12-04T17:51:35.103Z,40.25
2022-12-04T17:54:02.776Z,48.55
2022-12-04T17:56:31.266Z,40.75
2022-12-04T17:58:59.255Z,39.80
2022-12-04T18:01:29.196Z,44.85
2022-12-04T18:04:03.327Z,39.70
2022-12-04T18:06:36.373Z,41.88
2022-12-04T18:09:05.192Z,40.85
2022-12-04T18:11:35.102Z,41.13
2022-12-04T18:14:11.686Z,40.90
2022-12-04T18:16:43.229Z,39.97
2022-12-04T18:19:12.284Z,39.45
2022-12-04T18:21:40.379Z,36.50
2022-12-04T18:24:08.367Z,38.53
2022-12-04T18:26:42.361Z,37.20
2022-12-04T18:29:11.761Z,25.23
2022-12-04T18:31:39.501Z,33.42
2022-12-04T18:34:08.045Z,33.13
2022-12-04T18:36:38.681Z,28.50
2022-12-04T18:39:09.385Z,37.70
2022-12-04T18:41:37.599Z,32.67
2022-12-04T18:44:05.358Z,26.80
2022-12-04T18:46:33.165Z,37.78
2022-12-04T18:49:02.200Z,31.05
2022-12-04T18:51:35.509Z,38.53
2022-12-04T18:54:06.272Z,41.38
2022-12-04T18:56:35.851Z,49.30
2022-12-04T18:59:08.103Z,33.70
2022-12-04T19:01:35.860Z,35.03
2022-12-04T19:04:05.523Z,34.15
2022-12-04T19:06:36.358Z,38.42
2022-12-04T19:09:07.467Z,39.28
2022-12-04T19:11:35.565Z,41.22
2022-12-04T19:14:10.293Z,36.95
2022-12-04T19:16:43.693Z,41.78
2022-12-04T19:19:15.641Z,39.70
2022-12-04T19:21:44.316Z,38.13
2022-12-04T19:24:12.341Z,41.10
2022-12-04T19:26:40.166Z,41.50
2022-12-04T19:29:08.318Z,38.97
2022-12-04T19:31:37.621Z,43.03
2022-12-04T19:34:06.619Z,46.60
2022-12-04T19:36:37.567Z,59.03
2022-12-04T19:39:07.443Z,46.45
2022-12-04T19:41:37.148Z,49.92
2022-12-04T19:44:26.309Z,50.67
2022-12-04T19:46:53.842Z,50.33
2022-12-04T19:49:21.291Z,50.92
2022-12-04T19:51:49.844Z,43.40
2022-12-04T19:54:17.893Z,52.80
2022-12-04T19:56:49.007Z,54.83
2022-12-04T19:59:16.509Z,55.40
2022-12-04T20:01:44.621Z,52.13
2022-12-04T20:04:12.326Z,50.88
2022-12-04T20:06:47.252Z,64.80
2022-12-04T20:09:20.141Z,60.78
2022-12-04T20:11:48.464Z,51.05
2022-12-04T20:14:16.478Z,53.25
2022-12-04T20:16:46.693Z,61.42
2022-12-04T20:19:19.551Z,50.47
2022-12-04T20:21:47.800Z,45.97
2022-12-04T20:24:17.607Z,58.22
2022-12-04T20:26:47.019Z,51.40
2022-12-04T20:29:19.032Z,53.65
2022-12-04T20:31:47.466Z,51.40
2022-12-04T20:34:18.529Z,57.05
2022-12-04T20:36:48.619Z,55.72
2022-12-04T20:39:17.721Z,50.90
2022-12-04T20:41:45.355Z,51.00
2022-12-04T20:44:19.091Z,59.17
2022-12-04T20:46:47.014Z,52.15
2022-12-04T20:49:21.640Z,57.03
2022-12-04T20:51:50.826Z,50.67
2022-12-04T20:54:20.196Z,50.88
2022-12-04T20:56:49.154Z,54.13
2022-12-04T20:59:19.135Z,51.28
2022-12-04T21:01:49.045Z,55.97
2022-12-04T21:04:17.985Z,48.28
2022-12-04T21:06:46.587Z,48.80
2022-12-04T21:09:24.739Z,53.22
2022-12-04T21:11:55.035Z,48.00
2022-12-04T21:14:51.072Z,53.80
2022-12-04T21:17:21.217Z,45.88
2022-12-04T21:19:51.107Z,59.45
2022-12-04T21:22:19.817Z,54.70
2022-12-04T21:24:47.505Z,51.22
2022-12-04T21:27:20.711Z,53.47
2022-12-04T21:29:49.453Z,47.13
2022-12-04T21:32:17.009Z,56.13
2022-12-04T21:34:44.790Z,55.42
2022-12-04T21:37:12.345Z,56.63
2022-12-04T21:39:39.919Z,53.45
2022-12-04T21:42:36.513Z,52.03
2022-12-04T21:45:07.703Z,54.45
2022-12-04T21:47:37.203Z,53.38
2022-12-04T21:50:05.970Z,49.95
2022-12-04T21:52:33.432Z,50.25
2022-12-04T21:55:00.981Z,55.53
2022-12-04T21:57:29.520Z,55.50
2022-12-04T21:59:57.329Z,54.35
2022-12-04T22:02:25.176Z,53.95
2022-12-04T22:04:52.693Z,51.85
2022-12-04T22:07:20.272Z,53.97
2022-12-04T22:09:47.893Z,57.22
2022-12-04T22:12:41.175Z,57.50
2022-12-04T22:15:05.614Z,51.42
2022-12-04T22:17:33.219Z,56.33
2022-12-04T22:20:00.718Z,55.08
2022-12-04T22:22:28.323Z,56.83
2022-12-04T22:24:55.849Z,58.30
2022-12-04T22:27:23.758Z,54.20
2022-12-04T22:29:51.646Z,57.40
2022-12-04T22:32:20.814Z,51.47
2022-12-04T22:34:49.749Z,45.92
2022-12-04T22:37:17.536Z,47.08
2022-12-04T22:39:45.087Z,53.35
2022-12-04T22:42:12.605Z,50.03
2022-12-04T22:44:42.600Z,51.47
2022-12-04T22:47:11.695Z,53.40
2022-12-04T22:49:40.405Z,65.35
2022-12-04T22:52:07.949Z,49.60
2022-12-04T22:54:35.464Z,55.10
2022-12-04T22:57:02.970Z,52.42
2022-12-04T22:59:30.749Z,46.53
2022-12-04T23:02:00.047Z,50.97
2022-12-04T23:04:28.169Z,57.95
2022-12-04T23:06:55.772Z,54.20
2022-12-04T23:09:23.282Z,44.92
2022-12-04T23:11:55.036Z,58.75
2022-12-04T23:14:23.033Z,46.63
2022-12-04T23:16:50.789Z,47.13
2022-12-04T23:19:20.356Z,51.45
2022-12-04T23:21:55.054Z,53.90
2022-12-04T23:24:24.713Z,52.65
2022-12-04T23:26:52.319Z,50.63
2022-12-04T23:32:07.413Z,48.20
2022-12-04T23:34:34.921Z,49.08
2022-12-04T23:37:02.461Z,46.15
2022-12-04T23:39:30.056Z,46.40
2022-12-04T23:41:57.535Z,45.55
2022-12-04T23:44:25.053Z,47.92
2022-12-04T23:46:52.583Z,43.22
2022-12-04T23:49:20.278Z,43.95
2022-12-04T23:51:47.722Z,46.35
2022-12-04T23:54:15.326Z,46.35
2022-12-04T23:56:42.870Z,43.53
2022-12-04T23:59:10.655Z,45.15
